• Join FlightAware (Why Join?)
  • Login
  • US Flag 
07:14PM EDT


 

Airport Tracker/Info


-or-


 

Live Flight TrackerFlight Track Log ✈ WAV260 ✈ 24-Oct-2013 ✈ PAFA / FAI - PFYU

Flight Track Log - Related Links

Times and Time Zones

All times are in EDT time to prevent confusion due to time zone crossing. See the WAV260 flight status page for this flight to view local times or setup timezone preferences in your user account.

Time Position Orientation Groundspeed Altitude Reporting Facility
EDT Latitude Longitude Course Direction KTS MPH feet Rate Location/Type
09:39PM 64.9167 -147.6833 31° Northeast 140 161 3,800  Level Anchorage Center
09:40PM 64.9500 -147.6333 32° Northeast 140 161 4,500 660 Climbing Anchorage Center
09:41PM 64.9833 -147.5833 32° Northeast 150 173 5,200 720 Climbing Anchorage Center
09:42PM 65.0428 -147.5413 31° Northeast  Level Estimated
09:42PM 65.0167 -147.5167 40° Northeast 140 161 6,000  Level Anchorage Center
09:43PM 65.0805 -147.4876 31° Northeast  Level FlightAware Approximate
09:43PM 65.0500 -147.4833 23° Northeast 140 161 6,700  Level Anchorage Center
09:44PM 65.1182 -147.4338 31° Northeast  Level FlightAware Approximate
09:44PM 65.0833 -147.4167 40° Northeast 150 173 7,500  Level Anchorage Center
09:45PM 65.1559 -147.3799 31° Northeast  Level FlightAware Approximate
09:45PM 65.1333 -147.3833 16° North 150 173 8,100  Level Anchorage Center
09:46PM 65.1667 -147.3167 40° Northeast 160 184 8,700 420 Climbing Anchorage Center
09:47PM 65.2000 -147.2667 32° Northeast 170 196 9,000  Climbing Anchorage Center
09:48PM 65.2500 -147.2000 29° Northeast 190 219 8,700 -300 Descending Anchorage Center
09:49PM 65.3000 -147.1333 29° Northeast 190 219 8,500  Descending Anchorage Center
09:50PM 65.3333 -147.0667 40° Northeast 180 207 8,700 240 Climbing Anchorage Center
09:51PM 65.3833 -147.0167 23° Northeast 180 207 9,000  Climbing Anchorage Center
09:52PM 65.4333 -146.9500 29° Northeast 190 219 8,700  Descending Anchorage Center
09:53PM 65.4667 -146.8833 40° Northeast 180 207 9,000 120 Climbing Anchorage Center
09:54PM 65.5167 -146.8167 29° Northeast 180 207 9,000  Level Anchorage Center
09:55PM 65.5500 -146.7500 40° Northeast 180 207 9,000 -180 Level Anchorage Center
09:56PM 65.5833 -146.6667 46° Northeast 190 219 8,700 -240 Descending Anchorage Center
09:57PM 65.6333 -146.6000 29° Northeast 180 207 8,600  Descending Anchorage Center
09:58PM 65.6667 -146.5167 46° Northeast 180 207 8,700 180 Climbing Anchorage Center
09:59PM 65.7000 -146.4333 46° Northeast 180 207 9,000 120 Climbing Anchorage Center
10:00PM 65.7500 -146.3500 34° Northeast 190 219 9,000  Level Anchorage Center
10:01PM 65.7833 -146.2833 39° Northeast 180 207 9,000 -120 Level Anchorage Center
10:02PM 65.8333 -146.2167 29° Northeast 180 207 8,800 -420 Descending Anchorage Center
10:03PM 65.8667 -146.1333 46° Northeast 200 230 8,200 -600 Descending Anchorage Center
10:04PM 65.9167 -146.0500 34° Northeast 200 230 7,600 -660 Descending Anchorage Center
10:05PM 65.9500 -145.9667 46° Northeast 200 230 6,900 -600 Descending Anchorage Center
10:06PM 66.0000 -145.8833 34° Northeast 200 230 6,400 -420 Descending Anchorage Center
10:07PM 66.0500 -145.8167 28° Northeast 180 207 6,100 -480 Descending Anchorage Center
10:08PM 66.0833 -145.7333 45° Northeast 180 207 5,500 -600 Descending Anchorage Center
10:09PM 66.1167 -145.6500 45° Northeast 170 196 4,900 -600 Descending Anchorage Center
10:10PM 66.1667 -145.5667 34° Northeast 190 219 4,300 -600 Descending Anchorage Center
10:11PM 66.2000 -145.5000 39° Northeast 180 207 3,700 -600 Descending Anchorage Center
10:12PM 66.2333 -145.4167 45° Northeast 180 207 3,100 -600 Descending Anchorage Center
10:13PM 66.2833 -145.3500 28° Northeast 180 207 2,500 -480 Descending Anchorage Center
10:14PM 66.3167 -145.2667 45° Northeast 160 184 2,200 -180 Descending Anchorage Center
10:15PM 66.3500 -145.2000 39° Northeast 150 173 2,200 -60 Level Anchorage Center
10:16PM 66.3833 -145.1333 39° Northeast 140 161 2,100 -180 Descending Anchorage Center
10:17PM 66.4167 -145.0667 39° Northeast 120 138 1,900 -120 Descending Anchorage Center
10:18PM 66.4500 -145.0167 31° Northeast 130 150 1,900  Level Anchorage Center
10:19PM 66.4667 -144.9667 50° Northeast 150 173 1,900  Level Anchorage Center
10:20PM 66.5000 -144.9000 39° Northeast 130 150 1,900  Level Anchorage Center
10:21PM 66.5333 -144.8500 31° Northeast 120 138 1,900  Level Anchorage Center
10:22PM 66.5500 -144.7833 58° Northeast 130 150 1,900 60 Level Anchorage Center
10:23PM 66.5833 -144.7333 31° Northeast 120 138 2,100  Climbing Anchorage Center
10:24PM 66.6167 -144.7667 338° Northwest 150 173 1,900 -120 Descending Anchorage Center
10:25PM 66.6500 -144.8167 329° Northwest 140 161 1,900  Level Anchorage Center
10:26PM 66.6333 -144.9167 247° West 150 173 2,000  Climbing Anchorage Center
10:27PM 66.6167 -145.0000 243° Southwest 150 173 2,000  Level Anchorage Center
10:30PM 66.5945 -145.1037 242° Southwest  Level FlightAware Approximate
10:37PM 66.5667 -145.2333 270° West  Level FlightAware Approximate